Weather at Chautauqua County-Jamestown Airport

Public forecast

Using degrees Fahrenheit for public forecast. Weather courtesy of forecast.io.

Current aviation weather report (METAR) for Chautauqua County-Jamestown Airport

Retrieved 2020/11/28 09:56 UTC (20 minutes ago):

KJHW 280956Z AUTO 27008KT 7SM -RA FEW007 BKN010 OVC016 03/02 A2996 RMK AO2 RAB11 SLP164 P0002 T00280017

Aviation forecast (TAF) for Chautauqua County-Jamestown Airport

Retrieved 2020/11/28 06:39 UTC (4 hours ago):

TAF KJHW 280536Z 2806/2906 25008KT P6SM -RA OVC009 TEMPO 2807/2810 4SM -SHRA BR OVC015 FM281000 27010G17KT 5SM BR OVC012 TEMPO 2810/2812 2SM -SHRASN BR OVC008 FM281500 29013G19KT P6SM BKN020 FM281700 27013KT P6SM BKN150 FM282300 23010G18KT P6SM FEW250